Data ze zpráv METAR

Na této stránce "Data ze zpráv METAR" si můžete prohlédnout aktuální data o počasí z českých letišť.

LKKB - Kbely, Czech Republic
Distance from station: JJZ 98km
Aktualizováno v: 18/06/2018 21:00
Jasno
Jasno
 Vítr od ZSZ
Vítr: ZSZ 11 km/h
Teplota vzduchu: 20°C
Rosný bod: 9°C
Vlhkost: 49%
Tlak vzduchu: 1021 hPa
Souhrn: Jasno
Visibility: greater than 10 km
2018/06/18 19:00 LKKB 181900Z 29006KT CAVOK 20/09 Q1021 NOSIG
LKPR - Prague/Ruzyne, Czech Republic
Distance from station: JJZ 108km
Aktualizováno v: 18/06/2018 21:00
Jasno
Jasno
 Vítr od varies
Vítr: varies 4 km/h
Teplota vzduchu: 19°C
Rosný bod: 11°C
Vlhkost: 60%
Tlak vzduchu: 1021 hPa
Souhrn: Jasno
Visibility: greater than 10 km
2018/06/18 19:00 LKPR 181900Z VRB02KT CAVOK 19/11 Q1021 NOSIG
 
LKPD - Pardubice, Czech Republic
Distance from station: JJV 111km
Aktualizováno v: 18/06/2018 21:00
Jasno
Jasno
 Vítr od ZSZ
Vítr: ZSZ 9 km/h
Teplota vzduchu: 22°C
Rosný bod: 11°C
Vlhkost: 50%
Tlak vzduchu: 1020 hPa
Souhrn: Jasno
Visibility: greater than 10 km
2018/06/18 19:00 LKPD 181900Z 30005KT CAVOK 22/11 Q1020 NOSIG RMK BLU BLU
LKCV - Caslav, Czech Republic
Distance from station: JJV 113km
Aktualizováno v: 18/06/2018 21:00
Jasno
Jasno
 Vítr od ZSZ
Vítr: ZSZ 13 km/h
Teplota vzduchu: 21°C
Rosný bod: 12°C
Vlhkost: 57%
Tlak vzduchu: 1020 hPa
Souhrn: Jasno
Visibility: greater than 10 km
2018/06/18 19:00 LKCV 181900Z 30007KT CAVOK 21/12 Q1020 NOSIG RMK BLU BLU
 
LKKV - Karlovy Vary, Czech Republic
Distance from station: ZJZ 173km
Aktualizováno v: 18/06/2018 21:00
Jasno
Jasno
 Vítr od varies
Vítr: varies 2 km/h
Teplota vzduchu: 16°C
Rosný bod: 11°C
Vlhkost: 72%
Tlak vzduchu: 1022 hPa
Souhrn: Jasno
Visibility: greater than 10 km
2018/06/18 19:00 LKKV 181900Z VRB01KT CAVOK 16/11 Q1022
LKLN - Plzen Line, Czech Republic
Distance from station: JZ 189km
Aktualizováno v: 18/06/2018 21:00
Oblačno
Oblačno
 Vítr od JZ
Vítr: JZ 4 km/h
Teplota vzduchu: 20°C
Rosný bod: 13°C
Vlhkost: 64%
Tlak vzduchu: 1021 hPa
Clouds: Oblačno
Visibility: 10 km
Cloud details: Oblačno 2377 m
2018/06/18 19:00 LKLN 181900Z AUTO 23002KT 9999 BKN078 20/13 Q1021
 
LKNA - Namest, Czech Republic
Distance from station: JJV 209km
Aktualizováno v: 18/06/2018 21:00
Jasno
Jasno
 Vítr od SZ
Vítr: SZ 15 km/h
Teplota vzduchu: 20°C
Rosný bod: 11°C
Vlhkost: 56%
Tlak vzduchu: 1020 hPa
Souhrn: Jasno
Visibility: greater than 10 km
2018/06/18 19:00 LKNA 181900Z 31008KT CAVOK 20/11 Q1020 NOSIG RMK BLU BLU
LKTB - Brno/Turany, Czech Republic
Distance from station: JJV 230km
Aktualizováno v: 18/06/2018 21:00
Jasno
Jasno
 Vítr od SSZ
Vítr: SSZ 11 km/h
Teplota vzduchu: 24°C
Rosný bod: 9°C
Vlhkost: 39%
Tlak vzduchu: 1019 hPa
Souhrn: Jasno
Visibility: greater than 10 km
2018/06/18 19:00 LKTB 181900Z 34006KT CAVOK 24/09 Q1019 NOSIG